Time;durP1;ratioP1;P1;durP2;ratioP2;P2;SDS_P1;SDS_P2;PMS_P1;PMS_P2;Temp;Humidity;BMP_temperature;BMP_pressure;BME280_temperature;BME280_humidity;BME280_pressure;Samples;Min_cycle;Max_cycle;Signal;HPM_P1;HPM_P2
2023/10/29 00:02:12;;;;;;;6.63;1.40;;;;;;;10.97;100.00;99059.38;6307066;23;20020;-73
2023/10/29 00:04:43;;;;;;;5.07;1.25;;;;;;;10.99;100.00;99047.09;6306579;23;21319;-72
2023/10/29 00:07:13;;;;;;;3.80;1.30;;;;;;;10.99;100.00;99047.91;6305599;23;20020;-72
2023/10/29 00:09:43;;;;;;;4.35;1.30;;;;;;;10.97;100.00;99039.31;6304062;23;20024;-72
2023/10/29 00:12:14;;;;;;;5.85;1.52;;;;;;;11.05;100.00;99035.31;6308041;23;20051;-73
2023/10/29 00:14:44;;;;;;;6.85;1.77;;;;;;;11.08;100.00;99029.88;6306354;23;20043;-73
2023/10/29 00:17:14;;;;;;;5.82;1.80;;;;;;;11.10;100.00;99030.63;6308167;23;20019;-72
2023/10/29 00:19:45;;;;;;;6.93;1.75;;;;;;;11.09;100.00;99034.16;6280489;23;20019;-73
2023/10/29 00:22:15;;;;;;;7.10;1.63;;;;;;;11.03;100.00;99024.09;6311081;23;20023;-72
2023/10/29 00:24:45;;;;;;;5.63;1.40;;;;;;;11.05;100.00;99022.22;6305051;23;20055;-73
2023/10/29 00:27:16;;;;;;;4.22;1.55;;;;;;;11.09;100.00;99015.06;6308264;23;20065;-73
2023/10/29 00:29:46;;;;;;;4.95;1.75;;;;;;;11.04;100.00;99011.84;6300665;23;20028;-73
2023/10/29 00:32:18;;;;;;;5.75;1.73;;;;;;;11.08;100.00;98998.50;6307719;23;20106;-72
2023/10/29 00:34:49;;;;;;;7.43;1.70;;;;;;;11.19;100.00;98993.47;6276800;23;20843;-73
2023/10/29 00:37:19;;;;;;;6.55;1.90;;;;;;;11.18;100.00;98985.69;6300351;23;20027;-73
2023/10/29 00:39:49;;;;;;;6.18;1.50;;;;;;;11.28;100.00;98992.03;6304084;23;20062;-72
2023/10/29 00:42:20;;;;;;;5.68;1.75;;;;;;;11.25;100.00;98992.22;6304941;23;20102;-72
2023/10/29 00:44:50;;;;;;;4.40;1.90;;;;;;;11.36;100.00;98987.13;6301833;23;20019;-73
2023/10/29 00:47:21;;;;;;;6.68;1.88;;;;;;;11.47;100.00;98977.66;6283071;23;20047;-72
2023/10/29 00:49:52;;;;;;;4.78;1.48;;;;;;;11.51;100.00;98975.69;6303489;23;20531;-73
2023/10/29 00:52:23;;;;;;;4.20;1.80;;;;;;;11.47;100.00;98982.06;6283208;23;20061;-72
2023/10/29 00:54:53;;;;;;;5.70;1.60;;;;;;;11.54;100.00;98976.34;6302032;23;20020;-72
2023/10/29 00:57:24;;;;;;;3.67;1.55;;;;;;;11.51;100.00;98973.94;6277730;23;20658;-71
2023/10/29 00:59:55;;;;;;;5.60;1.40;;;;;;;11.50;100.00;98976.63;6298560;23;20046;-73
2023/10/29 01:02:26;;;;;;;5.47;1.90;;;;;;;11.54;100.00;98981.56;6308342;23;20019;-73
2023/10/29 01:04:56;;;;;;;4.78;1.48;;;;;;;11.63;100.00;98978.38;6302110;23;20494;-72
2023/10/29 01:07:27;;;;;;;8.38;1.83;;;;;;;11.49;100.00;98978.44;6304249;23;20083;-72
2023/10/29 01:10:00;;;;;;;5.07;1.85;;;;;;;11.54;100.00;98973.72;6304511;23;20059;-72
2023/10/29 01:12:30;;;;;;;4.70;1.70;;;;;;;11.50;100.00;98967.03;6306261;23;20015;-72
2023/10/29 01:15:01;;;;;;;5.53;1.40;;;;;;;11.50;100.00;98967.03;6310620;23;20020;-73
2023/10/29 01:17:31;;;;;;;6.43;1.70;;;;;;;11.55;100.00;98964.94;6306103;23;20015;-71
2023/10/29 01:20:02;;;;;;;7.25;1.35;;;;;;;11.43;100.00;98960.50;6305223;23;20027;-74
2023/10/29 01:22:33;;;;;;;5.90;1.50;;;;;;;11.47;100.00;98964.56;6307397;23;20027;-73
2023/10/29 01:25:07;;;;;;;5.38;1.20;;;;;;;11.51;100.00;98962.63;6300451;23;20298;-75
2023/10/29 01:27:37;;;;;;;4.18;1.30;;;;;;;11.51;100.00;98963.47;6305225;23;20381;-74
2023/10/29 01:30:08;;;;;;;3.40;1.23;;;;;;;11.55;100.00;98959.69;6303925;23;20013;-74
2023/10/29 01:32:38;;;;;;;5.10;1.35;;;;;;;11.55;100.00;98949.25;6305269;23;20043;-74
2023/10/29 01:35:09;;;;;;;3.53;1.38;;;;;;;11.52;100.00;98954.69;6305235;23;20043;-73
2023/10/29 01:37:39;;;;;;;3.58;1.05;;;;;;;11.51;100.00;98955.63;6301348;23;20095;-73
2023/10/29 01:40:10;;;;;;;2.33;1.10;;;;;;;11.50;100.00;98946.09;6307318;23;20020;-74
2023/10/29 01:42:40;;;;;;;4.18;1.05;;;;;;;11.50;100.00;98940.00;6289846;23;20497;-73
2023/10/29 01:45:14;;;;;;;4.35;0.82;;;;;;;11.40;100.00;98934.53;6277247;23;20023;-73
2023/10/29 01:47:44;;;;;;;8.02;1.30;;;;;;;11.42;100.00;98943.13;6280797;23;20024;-74
2023/10/29 01:50:15;;;;;;;3.58;0.88;;;;;;;11.50;100.00;98937.41;6304659;23;20019;-74
2023/10/29 01:52:45;;;;;;;6.25;1.17;;;;;;;11.43;100.00;98926.50;6310971;23;20614;-74
2023/10/29 01:55:15;;;;;;;4.68;1.00;;;;;;;11.50;100.00;98919.94;6308216;23;20028;-75
2023/10/29 01:57:46;;;;;;;2.17;1.10;;;;;;;11.51;100.00;98919.00;6298996;23;20020;-73
2023/10/29 02:00:16;;;;;;;2.72;1.08;;;;;;;11.54;100.00;98897.00;6302052;23;20444;-73
2023/10/29 02:02:47;;;;;;;2.35;0.93;;;;;;;11.62;100.00;98882.50;6300099;23;20020;-73
2023/10/29 02:05:17;;;;;;;5.75;1.00;;;;;;;11.61;100.00;98886.06;6301048;23;20008;-73
2023/10/29 02:07:48;;;;;;;3.47;0.77;;;;;;;11.58;100.00;98881.03;6278512;23;20032;-74
2023/10/29 02:10:18;;;;;;;2.45;0.75;;;;;;;11.58;100.00;98883.66;6288855;23;20061;-74
2023/10/29 02:12:48;;;;;;;2.38;0.70;;;;;;;11.58;100.00;98880.22;6314355;23;20549;-74
2023/10/29 02:15:19;;;;;;;2.85;0.95;;;;;;;11.59;100.00;98874.06;6318680;23;20011;-75
2023/10/29 02:17:49;;;;;;;2.75;0.73;;;;;;;11.62;100.00;98868.59;6302564;23;20397;-73
2023/10/29 02:20:19;;;;;;;3.95;0.98;;;;;;;11.63;100.00;98883.38;6315262;23;20259;-75
2023/10/29 02:22:50;;;;;;;1.20;0.80;;;;;;;11.67;100.00;98882.22;6310775;23;20024;-75
2023/10/29 02:25:20;;;;;;;3.65;1.15;;;;;;;11.57;100.00;98887.22;6314758;23;20095;-74
2023/10/29 02:27:50;;;;;;;3.67;0.80;;;;;;;11.53;100.00;98867.41;6310456;23;20504;-74
2023/10/29 02:30:20;;;;;;;1.50;0.60;;;;;;;11.53;100.00;98862.19;6308429;23;20023;-74
2023/10/29 02:32:51;;;;;;;2.55;0.80;;;;;;;11.52;100.00;98865.72;6312952;23;20062;-74
2023/10/29 02:35:21;;;;;;;4.63;0.80;;;;;;;11.53;100.00;98869.16;6294693;23;20125;-74
2023/10/29 02:37:52;;;;;;;1.90;0.80;;;;;;;11.58;100.00;98854.88;6279588;23;20469;-73
2023/10/29 02:40:22;;;;;;;1.58;0.70;;;;;;;11.58;100.00;98849.66;6307318;23;20251;-74
2023/10/29 02:42:52;;;;;;;6.18;0.90;;;;;;;11.51;100.00;98848.38;6297399;23;20099;-74
2023/10/29 02:45:22;;;;;;;2.47;0.75;;;;;;;11.54;100.00;98842.94;6312582;23;20012;-74
2023/10/29 02:47:54;;;;;;;4.30;0.93;;;;;;;11.62;100.00;98839.81;6310147;23;20012;-74
2023/10/29 02:50:24;;;;;;;3.00;0.63;;;;;;;11.54;100.00;98842.06;6316595;23;20035;-71
2023/10/29 02:52:54;;;;;;;2.05;1.15;;;;;;;11.55;100.00;98839.38;6314542;23;20012;-75
2023/10/29 02:55:25;;;;;;;0.85;0.60;;;;;;;11.58;100.00;98844.41;6309061;23;20047;-72
2023/10/29 02:57:55;;;;;;;1.38;0.52;;;;;;;11.59;100.00;98840.84;6310114;23;20016;-74
2023/10/29 03:00:25;;;;;;;4.53;0.82;;;;;;;11.59;100.00;98829.56;6311009;23;20008;-74
2023/10/29 03:02:56;;;;;;;1.65;0.70;;;;;;;11.68;100.00;98828.94;6308924;23;20016;-75
2023/10/29 03:05:26;;;;;;;2.50;0.50;;;;;;;11.69;100.00;98839.31;6309941;23;20035;-74
2023/10/29 03:07:58;;;;;;;2.75;0.80;;;;;;;11.65;100.00;98824.72;6305585;23;20030;-75
2023/10/29 03:10:31;;;;;;;4.22;0.75;;;;;;;11.61;100.00;98809.38;6312595;23;20014;-74
2023/10/29 03:13:01;;;;;;;1.20;0.70;;;;;;;11.61;100.00;98815.44;6313411;23;20299;-74
2023/10/29 03:15:32;;;;;;;3.40;0.70;;;;;;;11.61;100.00;98809.38;6314043;23;20019;-74
2023/10/29 03:18:02;;;;;;;2.97;0.95;;;;;;;11.63;100.00;98808.31;6303165;23;20034;-74
2023/10/29 03:20:32;;;;;;;3.25;0.80;;;;;;;11.65;100.00;98798.56;6308689;23;20120;-74
2023/10/29 03:23:03;;;;;;;3.85;0.80;;;;;;;11.69;100.00;98805.28;6311373;23;20458;-74
2023/10/29 03:25:34;;;;;;;1.70;0.70;;;;;;;11.70;100.00;98795.66;6312850;23;20031;-73
2023/10/29 03:28:04;;;;;;;1.63;0.40;;;;;;;11.68;100.00;98808.84;6305636;23;20558;-74
2023/10/29 03:30:34;;;;;;;1.17;0.80;;;;;;;11.66;100.00;98799.44;6306392;23;20007;-75
2023/10/29 03:33:05;;;;;;;1.15;0.60;;;;;;;11.72;100.00;98794.63;6303786;23;20018;-73
2023/10/29 03:35:35;;;;;;;5.25;0.57;;;;;;;11.69;100.00;98779.13;6308950;23;20156;-73
2023/10/29 03:38:05;;;;;;;4.10;0.80;;;;;;;11.69;100.00;98789.59;6306630;23;20022;-75
2023/10/29 03:40:36;;;;;;;1.50;0.45;;;;;;;11.74;100.00;98771.78;6311621;23;20012;-72
2023/10/29 03:43:08;;;;;;;1.77;0.57;;;;;;;11.73;100.00;98770.13;6301979;23;20104;-73
2023/10/29 03:45:38;;;;;;;2.83;0.55;;;;;;;11.75;100.00;98763.00;6301009;23;20015;-74
2023/10/29 03:48:08;;;;;;;1.25;0.50;;;;;;;11.79;100.00;98761.84;6312921;23;20034;-75
2023/10/29 03:50:39;;;;;;;1.45;0.50;;;;;;;11.78;100.00;98765.41;6308353;23;20449;-75
2023/10/29 03:53:09;;;;;;;3.22;0.52;;;;;;;11.84;100.00;98759.75;6287354;23;20015;-74
2023/10/29 03:55:39;;;;;;;1.30;0.47;;;;;;;11.86;100.00;98757.88;6285546;23;20011;-75
2023/10/29 03:58:10;;;;;;;2.72;0.60;;;;;;;11.98;100.00;98749.13;6309223;23;20051;-74
2023/10/29 04:00:41;;;;;;;1.98;0.60;;;;;;;12.02;100.00;98758.47;6278749;23;20016;-75
2023/10/29 04:03:11;;;;;;;1.92;0.60;;;;;;;12.01;100.00;98761.19;6279885;23;20020;-75
2023/10/29 04:05:41;;;;;;;5.53;0.80;;;;;;;12.04;100.00;98753.97;6276813;23;20767;-75
2023/10/29 04:08:12;;;;;;;1.83;0.50;;;;;;;12.03;100.00;98747.06;6306206;23;20358;-75
2023/10/29 04:10:42;;;;;;;4.90;1.10;;;;;;;12.04;100.00;98751.34;6282946;23;20023;-75
2023/10/29 04:13:13;;;;;;;2.17;0.70;;;;;;;12.03;100.00;98752.28;6309389;23;20065;-74
2023/10/29 04:15:43;;;;;;;2.50;0.63;;;;;;;12.07;100.00;98756.34;6312432;23;20439;-75
2023/10/29 04:18:14;;;;;;;3.70;0.68;;;;;;;12.11;100.00;98749.94;6304211;23;20090;-73
2023/10/29 04:20:44;;;;;;;1.33;0.52;;;;;;;12.12;100.00;98746.38;6307827;23;20091;-74
2023/10/29 04:23:14;;;;;;;2.22;0.73;;;;;;;12.21;100.00;98745.75;6286961;23;20016;-75
2023/10/29 04:25:45;;;;;;;1.95;0.65;;;;;;;12.24;100.00;98752.53;6307471;23;20011;-73
2023/10/29 04:28:15;;;;;;;2.50;0.70;;;;;;;12.22;100.00;98752.66;6302901;23;20389;-74
2023/10/29 04:30:46;;;;;;;1.73;0.60;;;;;;;12.25;100.00;98744.56;6273664;23;20359;-74
2023/10/29 04:33:17;;;;;;;2.03;0.70;;;;;;;12.34;100.00;98735.22;6306777;23;20035;-73
2023/10/29 04:35:47;;;;;;;2.10;0.60;;;;;;;12.35;100.00;98727.25;6283197;23;20012;-73
2023/10/29 04:38:17;;;;;;;2.47;0.77;;;;;;;12.37;100.00;98729.75;6279897;23;20020;-75
2023/10/29 04:40:48;;;;;;;3.00;0.85;;;;;;;12.43;100.00;98724.91;6278536;23;20469;-72
2023/10/29 04:43:18;;;;;;;2.78;0.85;;;;;;;12.49;100.00;98718.41;6304204;23;20019;-75
2023/10/29 04:45:49;;;;;;;2.55;0.90;;;;;;;12.57;100.00;98722.13;6301626;23;20024;-74
2023/10/29 04:48:19;;;;;;;1.77;0.73;;;;;;;12.61;100.00;98722.75;6306612;23;20405;-75
2023/10/29 04:50:49;;;;;;;2.00;0.68;;;;;;;12.65;100.00;98714.53;6303731;23;20024;-74
2023/10/29 04:53:19;;;;;;;1.45;0.52;;;;;;;12.66;100.00;98704.91;6284601;23;20019;-73
2023/10/29 04:55:50;;;;;;;2.17;0.60;;;;;;;12.61;100.00;98707.84;6306142;23;20031;-75
2023/10/29 04:58:20;;;;;;;2.42;0.77;;;;;;;12.70;100.00;98701.94;6302496;23;20027;-73
2023/10/29 05:00:50;;;;;;;3.13;0.57;;;;;;;12.72;100.00;98691.34;6277812;23;20004;-73
2023/10/29 05:03:21;;;;;;;6.97;0.88;;;;;;;12.79;100.00;98688.16;6310396;23;20455;-74
2023/10/29 05:05:51;;;;;;;1.83;0.50;;;;;;;12.95;100.00;98691.31;6305159;23;20027;-74
2023/10/29 05:08:21;;;;;;;3.50;0.85;;;;;;;12.90;100.00;98680.31;6307016;23;20485;-75
2023/10/29 05:10:51;;;;;;;8.93;2.97;;;;;;;12.93;100.00;98662.59;6303487;23;20074;-75
2023/10/29 05:13:22;;;;;;;1.02;0.52;;;;;;;12.96;100.00;98648.41;6309794;23;20351;-73
2023/10/29 05:15:52;;;;;;;2.28;0.63;;;;;;;13.09;100.00;98633.44;6304545;23;20025;-74
2023/10/29 05:18:22;;;;;;;2.10;0.88;;;;;;;13.19;100.00;98642.25;6300229;23;20012;-74
2023/10/29 05:20:53;;;;;;;2.47;0.60;;;;;;;13.13;100.00;98640.94;6303598;23;20066;-74
2023/10/29 05:23:23;;;;;;;2.50;0.40;;;;;;;13.09;100.00;98633.44;6307043;23;20034;-73
2023/10/29 05:25:54;;;;;;;3.33;0.70;;;;;;;13.01;100.00;98644.50;6304932;23;20023;-73
2023/10/29 05:28:25;;;;;;;3.03;0.57;;;;;;;13.03;100.00;98641.78;6281269;23;20019;-71
2023/10/29 05:30:55;;;;;;;3.58;0.88;;;;;;;12.95;100.00;98622.34;6305519;23;20008;-72
2023/10/29 05:33:25;;;;;;;1.42;0.50;;;;;;;13.01;100.00;98623.53;6280303;23;20370;-75
2023/10/29 05:35:57;;;;;;;1.85;0.80;;;;;;;12.93;100.00;98618.97;6303969;23;20031;-72
2023/10/29 05:38:27;;;;;;;1.48;0.50;;;;;;;12.91;100.00;98622.50;6279211;23;20015;-74
2023/10/29 05:40:57;;;;;;;1.98;0.52;;;;;;;12.88;100.00;98632.41;6304978;23;20087;-73
2023/10/29 05:43:28;;;;;;;1.92;0.47;;;;;;;12.82;100.00;98640.72;6309096;23;20019;-73
2023/10/29 05:45:58;;;;;;;5.65;2.47;;;;;;;12.81;100.00;98644.28;6302347;23;20020;-73
2023/10/29 05:48:28;;;;;;;1.65;0.60;;;;;;;12.86;100.00;98639.56;6308796;23;20228;-73
2023/10/29 05:50:59;;;;;;;3.70;0.93;;;;;;;12.88;100.00;98622.75;6298725;23;20066;-74
2023/10/29 05:53:29;;;;;;;2.15;0.60;;;;;;;12.86;100.00;98628.22;6272471;23;20043;-75
2023/10/29 05:55:59;;;;;;;1.88;0.50;;;;;;;12.80;100.00;98634.75;6300317;23;20299;-75
2023/10/29 05:58:30;;;;;;;3.25;0.90;;;;;;;12.77;100.00;98635.00;6303810;23;20071;-73
2023/10/29 06:01:00;;;;;;;1.45;0.50;;;;;;;12.85;100.00;98644.91;6278256;23;20019;-73
2023/10/29 06:03:31;;;;;;;1.77;0.70;;;;;;;12.90;100.00;98647.06;6309410;23;20026;-73
2023/10/29 06:06:02;;;;;;;1.98;0.68;;;;;;;12.85;100.00;98658.03;6301238;23;20027;-75
2023/10/29 06:08:32;;;;;;;0.80;0.50;;;;;;;12.87;100.00;98654.34;6278765;23;20020;-75
2023/10/29 06:11:04;;;;;;;5.10;0.90;;;;;;;12.91;100.00;98661.03;6300486;23;20469;-72
2023/10/29 06:13:34;;;;;;;2.03;0.60;;;;;;;13.03;100.00;98658.34;6298682;23;20039;-74
2023/10/29 06:16:08;;;;;;;1.48;0.50;;;;;;;12.94;100.00;98658.19;6301293;23;20031;-75
2023/10/29 06:18:38;;;;;;;3.30;0.60;;;;;;;12.95;100.00;98654.63;6301866;23;20019;-74
2023/10/29 06:21:09;;;;;;;2.75;0.60;;;;;;;12.96;100.00;98672.03;6294828;23;20009;-75
2023/10/29 06:23:39;;;;;;;0.98;0.50;;;;;;;12.99;100.00;98661.28;6303886;23;20090;-73
2023/10/29 06:26:09;;;;;;;1.65;0.60;;;;;;;12.99;100.00;98656.03;6302009;23;20020;-75
2023/10/29 06:28:39;;;;;;;1.40;0.50;;;;;;;13.07;100.00;98653.69;6304314;23;20016;-75
2023/10/29 06:31:10;;;;;;;3.85;0.80;;;;;;;13.08;100.00;98655.38;6301644;23;20020;-73
2023/10/29 06:33:41;;;;;;;2.85;1.20;;;;;;;13.17;100.00;98649.41;6301481;23;20022;-73
2023/10/29 06:36:11;;;;;;;2.92;0.55;;;;;;;13.25;100.00;98652.28;6299335;23;20477;-75
2023/10/29 06:38:41;;;;;;;1.23;0.60;;;;;;;13.27;100.00;98648.56;6296228;23;20111;-75
2023/10/29 06:41:12;;;;;;;2.38;0.55;;;;;;;13.37;100.00;98665.28;6297951;23;20458;-75
2023/10/29 06:43:42;;;;;;;2.13;0.75;;;;;;;13.46;100.00;98669.00;6306188;23;20019;-74
2023/10/29 06:46:12;;;;;;;1.15;0.40;;;;;;;13.49;100.00;98697.63;6304602;23;20016;-74
2023/10/29 06:48:43;;;;;;;4.20;0.60;;;;;;;13.61;100.00;98687.00;6304278;23;20776;-74
2023/10/29 06:51:15;;;;;;;3.40;0.55;;;;;;;13.63;100.00;98684.25;6308304;23;20016;-74
2023/10/29 06:53:45;;;;;;;4.03;0.63;;;;;;;13.60;100.00;98705.50;6308018;23;20106;-72
2023/10/29 06:56:16;;;;;;;1.48;0.50;;;;;;;13.62;100.00;98693.94;6309547;23;20049;-74
2023/10/29 06:58:46;;;;;;;2.67;0.60;;;;;;;13.64;100.00;98691.19;6298586;23;20016;-73
2023/10/29 07:01:17;;;;;;;1.35;0.40;;;;;;;13.58;100.00;98699.53;6309273;23;20016;-74
2023/10/29 07:03:47;;;;;;;1.88;0.57;;;;;;;13.56;100.00;98706.69;6280747;23;20043;-75
2023/10/29 07:06:17;;;;;;;2.42;0.50;;;;;;;13.57;100.00;98697.88;6305665;23;20087;-74
2023/10/29 07:08:47;;;;;;;1.40;0.57;;;;;;;13.58;100.00;98683.78;6279320;23;20290;-73
2023/10/29 07:11:19;;;;;;;2.17;0.65;;;;;;;13.57;100.00;98692.63;6303315;23;20046;-75
2023/10/29 07:13:49;;;;;;;3.90;0.75;;;;;;;13.56;100.00;98688.34;6307298;23;20020;-74
2023/10/29 07:16:19;;;;;;;1.17;0.50;;;;;;;13.63;100.00;98694.75;6299354;23;20024;-73
2023/10/29 07:18:50;;;;;;;2.60;0.50;;;;;;;13.83;100.00;98689.63;6282305;23;20512;-74
2023/10/29 07:21:20;;;;;;;4.47;0.50;;;;;;;13.91;100.00;98678.53;6299836;23;20069;-73
2023/10/29 07:23:50;;;;;;;1.60;0.50;;;;;;;14.00;100.00;98702.28;6304769;23;20111;-74
2023/10/29 07:26:22;;;;;;;2.45;0.68;;;;;;;14.04;100.00;98695.81;6302756;23;20044;-73
2023/10/29 07:28:52;;;;;;;1.20;0.60;;;;;;;14.11;100.00;98702.22;6299225;23;20078;-73
2023/10/29 07:31:22;;;;;;;2.58;0.60;;;;;;;14.18;100.00;98702.63;6307134;23;20050;-75
2023/10/29 07:33:53;;;;;;;2.28;0.70;;;;;;;14.25;100.00;98699.38;6301136;23;20480;-73
2023/10/29 07:36:23;;;;;;;1.88;0.93;;;;;;;14.23;100.00;98700.47;6276694;23;20085;-72
2023/10/29 07:38:54;;;;;;;5.97;0.63;;;;;;;14.34;100.00;98701.28;6273828;23;20099;-74
2023/10/29 07:41:24;;;;;;;3.50;0.52;;;;;;;14.29;100.00;98699.97;6284164;23;20020;-73
2023/10/29 07:43:55;;;;;;;1.60;0.50;;;;;;;14.39;100.00;98707.00;6308911;23;20457;-72
2023/10/29 07:46:25;;;;;;;3.00;0.52;;;;;;;14.50;100.00;98703.50;6306363;23;20015;-71
2023/10/29 07:48:55;;;;;;;1.80;0.50;;;;;;;14.52;100.00;98702.41;6303933;23;20409;-72
2023/10/29 07:51:26;;;;;;;2.60;0.50;;;;;;;14.57;100.00;98709.94;6305874;23;20035;-71
2023/10/29 07:53:56;;;;;;;3.22;0.82;;;;;;;14.55;100.00;98701.31;6303538;23;20019;-72
2023/10/29 07:56:26;;;;;;;0.90;0.40;;;;;;;14.58;100.00;98707.16;6296935;23;20026;-72
2023/10/29 07:58:57;;;;;;;1.50;0.40;;;;;;;14.66;100.00;98717.06;6299929;23;20086;-72
2023/10/29 08:01:28;;;;;;;2.03;0.50;;;;;;;14.58;100.00;98715.06;6282608;23;20022;-72
2023/10/29 08:03:58;;;;;;;2.05;0.47;;;;;;;14.47;100.00;98711.63;6270822;23;20028;-73
2023/10/29 08:06:28;;;;;;;1.95;0.40;;;;;;;14.55;100.00;98712.69;6303418;23;20050;-72
2023/10/29 08:08:58;;;;;;;3.55;0.50;;;;;;;14.56;100.00;98705.66;6274324;23;20374;-72
2023/10/29 08:11:29;;;;;;;2.90;0.50;;;;;;;14.49;100.00;98715.81;6291961;23;20058;-72
2023/10/29 08:14:00;;;;;;;1.80;0.40;;;;;;;14.50;100.00;98720.13;6305640;23;20016;-72
2023/10/29 08:16:30;;;;;;;2.92;0.70;;;;;;;14.53;100.00;98698.84;6304243;23;20171;-71
2023/10/29 08:19:00;;;;;;;1.35;0.40;;;;;;;14.51;100.00;98702.53;6301749;23;20016;-72
2023/10/29 08:21:31;;;;;;;1.88;0.60;;;;;;;14.51;100.00;98708.63;6306300;23;20027;-71
2023/10/29 08:24:01;;;;;;;4.10;0.85;;;;;;;14.61;100.00;98719.25;6302786;23;20028;-73
2023/10/29 08:26:32;;;;;;;2.50;0.50;;;;;;;14.56;100.00;98718.78;6300984;23;20028;-73
2023/10/29 08:29:03;;;;;;;3.22;0.50;;;;;;;14.48;100.00;98731.69;6299609;23;20090;-73
2023/10/29 08:31:33;;;;;;;1.00;0.40;;;;;;;14.56;100.00;98719.59;6308450;23;20065;-71
2023/10/29 08:34:04;;;;;;;0.70;0.40;;;;;;;14.46;100.00;98712.59;6308759;23;20019;-72
2023/10/29 08:36:34;;;;;;;1.08;0.50;;;;;;;14.55;100.00;98711.84;6307807;23;20039;-71
2023/10/29 08:39:04;;;;;;;4.22;0.70;;;;;;;14.53;100.00;98719.00;6299493;23;20024;-72
2023/10/29 08:41:35;;;;;;;1.15;0.50;;;;;;;14.50;100.00;98719.25;6306182;23;20106;-72
2023/10/29 08:44:05;;;;;;;1.05;0.40;;;;;;;14.47;100.00;98714.25;6291839;23;20020;-73
2023/10/29 08:46:35;;;;;;;3.92;0.50;;;;;;;14.48;100.00;98727.28;6294433;23;20012;-72
2023/10/29 08:49:06;;;;;;;0.45;0.30;;;;;;;14.48;100.00;98732.56;6284508;23;20061;-71
2023/10/29 08:51:36;;;;;;;1.20;0.32;;;;;;;14.55;100.00;98719.72;6294483;23;20491;-72
2023/10/29 08:54:06;;;;;;;1.70;0.32;;;;;;;14.60;100.00;98721.03;6302461;23;20027;-72
2023/10/29 08:56:37;;;;;;;1.70;1.00;;;;;;;14.51;100.00;98698.13;6274985;23;20016;-72
2023/10/29 08:59:09;;;;;;;0.90;0.38;;;;;;;14.58;100.00;98711.59;6278710;23;20016;-73
2023/10/29 09:01:40;;;;;;;1.27;0.47;;;;;;;14.74;100.00;98712.84;6294712;23;20020;-71
2023/10/29 09:04:12;;;;;;;1.55;0.30;;;;;;;14.77;100.00;98711.78;6299595;23;20073;-72
2023/10/29 09:06:43;;;;;;;1.00;0.40;;;;;;;14.84;100.00;98709.34;6301460;23;20098;-73
2023/10/29 09:09:13;;;;;;;1.90;0.40;;;;;;;14.93;100.00;98710.38;6299848;23;20016;-73
2023/10/29 09:11:46;;;;;;;2.67;0.52;;;;;;;14.92;100.00;98717.44;6295178;23;20016;-72
2023/10/29 09:14:16;;;;;;;2.30;0.50;;;;;;;14.94;100.00;98712.88;6294305;23;20020;-71
2023/10/29 09:16:48;;;;;;;0.75;0.30;;;;;;;14.90;100.00;98708.00;6290431;23;20023;-73
2023/10/29 09:19:18;;;;;;;1.70;0.40;;;;;;;14.99;100.00;98709.88;6293902;23;20145;-71
2023/10/29 09:21:48;;;;;;;0.82;0.45;;;;;;;15.09;100.00;98713.41;6295988;23;20040;-72
2023/10/29 09:24:19;;;;;;;0.93;0.30;;;;;;;15.17;100.00;98719.69;6288207;23;20020;-70
2023/10/29 09:26:49;;;;;;;1.23;0.52;;;;;;;15.19;100.00;98727.47;6279342;23;20078;-71
2023/10/29 09:29:20;;;;;;;1.98;0.47;;;;;;;15.26;99.96;98732.09;6278228;23;20032;-73
2023/10/29 09:31:51;;;;;;;3.25;0.43;;;;;;;15.32;100.00;98731.59;6254995;23;20050;-72
2023/10/29 09:34:22;;;;;;;1.77;0.55;;;;;;;15.32;100.00;98734.22;6281177;23;20669;-72
2023/10/29 09:36:52;;;;;;;1.58;0.60;;;;;;;15.43;99.19;98741.22;6271128;23;20016;-72
2023/10/29 09:39:22;;;;;;;0.98;0.40;;;;;;;15.47;99.58;98738.22;6308856;23;20030;-72
2023/10/29 09:41:54;;;;;;;2.05;0.38;;;;;;;15.44;99.06;98746.38;6298261;23;20111;-72
2023/10/29 09:44:24;;;;;;;0.85;0.30;;;;;;;15.62;100.00;98736.91;6304427;23;20477;-70
2023/10/29 09:47:02;;;;;;;3.22;0.40;;;;;;;15.72;97.03;98750.94;6310542;23;20145;-73
2023/10/29 09:49:33;;;;;;;1.00;0.40;;;;;;;15.92;97.19;98754.53;6296658;23;20023;-73
2023/10/29 09:52:04;;;;;;;3.85;0.40;;;;;;;16.08;95.78;98755.69;6304477;23;20012;-73
2023/10/29 09:54:37;;;;;;;1.98;0.30;;;;;;;16.36;96.15;98757.63;6301346;23;20125;-72
2023/10/29 09:57:08;;;;;;;1.40;0.30;;;;;;;16.47;95.09;98759.31;6302981;23;20027;-72
2023/10/29 09:59:38;;;;;;;0.57;0.22;;;;;;;16.53;94.66;98769.34;6285368;23;20024;-71
2023/10/29 10:02:08;;;;;;;1.58;0.40;;;;;;;16.70;96.52;98779.22;6293448;23;20012;-72
2023/10/29 10:04:39;;;;;;;5.80;0.40;;;;;;;16.78;94.17;98774.94;6283225;23;20051;-71
2023/10/29 10:07:10;;;;;;;1.20;0.47;;;;;;;16.91;94.53;98773.69;6292184;23;20061;-72
2023/10/29 10:09:54;;;;;;;2.47;0.30;;;;;;;16.93;91.81;98777.03;6294670;23;20027;-72
2023/10/29 10:12:25;;;;;;;0.52;0.30;;;;;;;16.96;92.44;98789.13;6274362;23;20027;-72
2023/10/29 10:15:03;;;;;;;1.85;0.40;;;;;;;16.75;92.55;98793.66;6311016;23;20440;-71
2023/10/29 10:17:34;;;;;;;0.50;0.20;;;;;;;16.96;91.66;98803.13;6273272;23;20020;-71
2023/10/29 10:20:07;;;;;;;2.60;0.40;;;;;;;16.91;92.31;98810.66;6264653;23;20092;-73
2023/10/29 10:22:37;;;;;;;2.17;0.30;;;;;;;16.95;92.79;98821.78;6299312;23;20020;-72
2023/10/29 10:25:16;;;;;;;0.68;0.30;;;;;;;16.85;90.53;98818.28;6306906;23;20097;-73
2023/10/29 10:27:51;;;;;;;3.25;0.75;;;;;;;16.85;91.42;98808.56;6302087;23;20051;-72
2023/10/29 10:30:33;;;;;;;0.70;0.33;;;;;;;16.74;91.08;98809.66;6302102;23;20553;-73
2023/10/29 10:33:20;;;;;;;2.03;0.50;;;;;;;16.70;92.47;98809.06;6277069;23;20772;-73
2023/10/29 10:35:51;;;;;;;0.40;0.20;;;;;;;16.76;92.60;98811.16;6297986;23;20032;-72
2023/10/29 10:38:24;;;;;;;1.05;0.30;;;;;;;16.69;92.23;98815.31;6293380;23;20019;-73
2023/10/29 10:41:01;;;;;;;0.80;0.30;;;;;;;16.63;92.58;98823.78;6301323;23;20099;-72
2023/10/29 10:43:31;;;;;;;0.93;0.45;;;;;;;16.52;92.64;98829.16;6298774;23;20069;-73
2023/10/29 10:46:02;;;;;;;0.80;0.30;;;;;;;16.53;93.07;98838.72;6279218;23;20024;-73
2023/10/29 10:48:34;;;;;;;0.75;0.40;;;;;;;16.42;92.95;98844.09;6303218;23;20016;-73
2023/10/29 10:51:05;;;;;;;0.90;0.30;;;;;;;16.40;93.72;98838.13;6306168;23;20466;-73
2023/10/29 10:53:36;;;;;;;1.70;0.82;;;;;;;16.42;94.12;98846.72;6301182;23;20022;-72
2023/10/29 10:56:12;;;;;;;3.95;0.60;;;;;;;16.34;93.60;98843.91;6308105;23;20028;-72
2023/10/29 10:58:45;;;;;;;1.65;0.40;;;;;;;16.40;94.68;98837.31;6302530;23;20027;-72
2023/10/29 11:01:16;;;;;;;0.70;0.20;;;;;;;16.40;95.99;98843.41;6302652;23;20027;-73
2023/10/29 11:03:46;;;;;;;0.77;0.30;;;;;;;16.33;95.93;98826.41;6302195;23;20016;-73
2023/10/29 11:06:16;;;;;;;0.95;0.30;;;;;;;16.23;95.23;98814.97;6292097;23;20460;-72
2023/10/29 11:08:47;;;;;;;1.33;0.45;;;;;;;16.25;96.29;98806.97;6301177;23;20678;-72
2023/10/29 11:11:19;;;;;;;1.60;0.40;;;;;;;16.17;96.71;98793.59;6303812;23;20015;-72
2023/10/29 11:13:52;;;;;;;2.85;0.57;;;;;;;16.06;96.62;98796.34;6297708;23;20381;-72
2023/10/29 11:16:26;;;;;;;1.30;0.40;;;;;;;16.19;95.84;98797.78;6277911;23;20081;-73
2023/10/29 11:18:56;;;;;;;0.30;0.20;;;;;;;16.07;96.10;98793.56;6289906;23;20026;-73
2023/10/29 11:21:34;;;;;;;0.35;0.10;;;;;;;16.05;97.44;98792.03;6290930;23;20020;-72
2023/10/29 11:24:17;;;;;;;2.17;0.22;;;;;;;16.01;97.38;98790.63;6294157;23;20068;-72
2023/10/29 11:26:48;;;;;;;1.05;0.30;;;;;;;16.02;98.18;98805.47;6289396;23;20020;-72
2023/10/29 11:29:43;;;;;;;2.92;0.50;;;;;;;15.95;98.25;98813.06;6294934;23;20024;-73
2023/10/29 11:32:24;;;;;;;0.77;0.30;;;;;;;15.92;99.09;98799.31;6263976;23;20072;-72
2023/10/29 11:35:24;;;;;;;2.38;0.40;;;;;;;15.90;98.76;98807.34;6297124;23;20091;-72
2023/10/29 11:37:55;;;;;;;2.33;0.50;;;;;;;16.03;98.32;98813.22;6299297;23;20492;-72
2023/10/29 11:40:25;;;;;;;3.50;0.40;;;;;;;15.88;98.78;98829.53;6297136;23;20024;-71
2023/10/29 11:43:13;;;;;;;1.48;0.35;;;;;;;15.92;99.05;98813.34;6296954;23;20536;-73
2023/10/29 11:45:57;;;;;;;2.40;0.60;;;;;;;15.82;99.51;98809.78;6296756;23;20024;-72